createdAt,value
2023-04-16T00:01:03.112Z,3.30
2023-04-16T00:03:33.048Z,3.10
2023-04-16T00:06:01.337Z,3.30
2023-04-16T00:08:29.590Z,3.45
2023-04-16T00:10:57.741Z,3.15
2023-04-16T00:13:27.462Z,3.00
2023-04-16T00:15:55.646Z,3.13
2023-04-16T00:18:23.680Z,3.30
2023-04-16T00:20:53.557Z,3.28
2023-04-16T00:23:22.086Z,3.30
2023-04-16T00:25:50.088Z,3.20
2023-04-16T00:28:18.424Z,3.20
2023-04-16T00:30:46.668Z,3.20
2023-04-16T00:33:14.948Z,3.00
2023-04-16T00:35:43.028Z,3.20
2023-04-16T00:38:12.480Z,2.95
2023-04-16T00:40:42.384Z,3.17
2023-04-16T00:43:10.637Z,2.97
2023-04-16T00:45:38.828Z,3.45
2023-04-16T00:48:07.456Z,3.03
2023-04-16T00:50:35.781Z,3.33
2023-04-16T00:53:04.188Z,3.30
2023-04-16T00:55:33.809Z,3.20
2023-04-16T00:58:01.923Z,3.08
2023-04-16T01:00:30.168Z,3.00
2023-04-16T01:02:58.588Z,3.13
2023-04-16T01:05:26.764Z,4.03
2023-04-16T01:07:54.897Z,3.58
2023-04-16T01:10:23.129Z,3.47
2023-04-16T01:12:52.537Z,3.53
2023-04-16T01:15:20.752Z,3.40
2023-04-16T01:17:49.131Z,3.15
2023-04-16T01:20:17.223Z,3.20
2023-04-16T01:22:46.708Z,3.38
2023-04-16T01:25:16.834Z,3.30
2023-04-16T01:27:44.902Z,3.00
2023-04-16T01:30:13.275Z,3.53
2023-04-16T01:32:41.403Z,3.25
2023-04-16T01:35:09.650Z,3.35
2023-04-16T01:37:37.681Z,3.40
2023-04-16T01:40:08.283Z,3.17
2023-04-16T01:42:36.347Z,3.30
2023-04-16T01:45:04.767Z,2.97
2023-04-16T01:47:33.042Z,3.42
2023-04-16T01:50:01.751Z,3.50
2023-04-16T01:52:30.296Z,3.15
2023-04-16T01:54:58.659Z,3.15
2023-04-16T01:57:28.108Z,3.30
2023-04-16T01:59:56.804Z,2.83
2023-04-16T02:02:28.214Z,3.17
2023-04-16T02:04:57.496Z,3.13
2023-04-16T02:07:25.744Z,3.65
2023-04-16T02:09:53.993Z,3.40
2023-04-16T02:12:22.112Z,3.30
2023-04-16T02:14:51.536Z,2.85
2023-04-16T02:17:19.613Z,3.30
2023-04-16T02:19:48.369Z,3.40
2023-04-16T02:22:16.503Z,3.30
2023-04-16T02:24:44.488Z,3.35
2023-04-16T02:27:12.612Z,3.22
2023-04-16T02:29:40.656Z,3.42
2023-04-16T02:32:10.203Z,3.50
2023-04-16T02:34:40.300Z,3.40
2023-04-16T02:37:08.380Z,3.05
2023-04-16T02:39:36.810Z,3.13
2023-04-16T02:42:04.984Z,3.40
2023-04-16T02:44:33.056Z,3.60
2023-04-16T02:47:01.101Z,3.10
2023-04-16T02:49:31.049Z,3.50
2023-04-16T02:51:59.523Z,3.17
2023-04-16T02:54:27.640Z,3.38
2023-04-16T02:56:55.628Z,3.22
2023-04-16T02:59:23.771Z,3.30
2023-04-16T03:01:52.132Z,3.35
2023-04-16T03:04:20.364Z,3.40
2023-04-16T03:06:49.765Z,3.22
2023-04-16T03:09:18.353Z,3.40
2023-04-16T03:11:46.398Z,3.33
2023-04-16T03:14:14.513Z,3.33
2023-04-16T03:16:42.632Z,3.83
2023-04-16T03:19:10.940Z,3.70
2023-04-16T03:21:39.162Z,3.78
2023-04-16T03:24:08.610Z,3.60
2023-04-16T03:26:36.747Z,3.60
2023-04-16T03:29:04.837Z,3.40
2023-04-16T03:31:33.002Z,3.20
2023-04-16T03:34:01.148Z,3.58
2023-04-16T03:36:31.028Z,3.22
2023-04-16T03:38:59.353Z,3.03
2023-04-16T03:41:28.812Z,3.08
2023-04-16T03:43:56.934Z,3.63
2023-04-16T03:46:25.133Z,3.15
2023-04-16T03:48:53.288Z,3.30
2023-04-16T03:51:21.797Z,3.33
2023-04-16T03:53:49.895Z,3.22
2023-04-16T03:56:17.968Z,3.53
2023-04-16T03:58:47.435Z,2.95
2023-04-16T04:01:15.553Z,3.00
2023-04-16T04:03:44.071Z,3.22
2023-04-16T04:06:12.474Z,3.28
2023-04-16T04:08:40.474Z,3.08
2023-04-16T04:11:08.531Z,3.47
2023-04-16T04:13:36.658Z,3.20
2023-04-16T04:16:07.053Z,3.00
2023-04-16T04:18:35.150Z,3.08
2023-04-16T04:21:07.512Z,3.05
2023-04-16T04:23:35.705Z,3.22
2023-04-16T04:26:05.657Z,3.13
2023-04-16T04:28:34.692Z,3.65
2023-04-16T04:31:03.039Z,3.15
2023-04-16T04:33:32.836Z,3.65
2023-04-16T04:36:01.032Z,3.38
2023-04-16T04:38:30.127Z,2.90
2023-04-16T04:40:58.424Z,3.33
2023-04-16T04:43:26.923Z,3.10
2023-04-16T04:45:55.007Z,3.38
2023-04-16T04:48:26.746Z,3.50
2023-04-16T04:50:56.329Z,2.90
2023-04-16T04:53:24.346Z,2.75
2023-04-16T04:55:55.624Z,2.80
2023-04-16T04:58:25.604Z,3.30
2023-04-16T05:00:53.830Z,3.13
2023-04-16T05:03:22.793Z,2.83
2023-04-16T05:05:50.924Z,2.90
2023-04-16T05:08:20.665Z,3.15
2023-04-16T05:10:48.741Z,2.85
2023-04-16T05:13:16.852Z,3.10
2023-04-16T05:15:45.786Z,2.78
2023-04-16T05:18:13.847Z,2.80
2023-04-16T05:20:41.915Z,2.85
2023-04-16T05:23:10.236Z,2.75
2023-04-16T05:25:39.655Z,2.67
2023-04-16T05:28:07.732Z,2.80
2023-04-16T05:30:35.916Z,2.88
2023-04-16T05:33:04.068Z,2.97
2023-04-16T05:35:32.150Z,2.70
2023-04-16T05:38:00.311Z,2.95
2023-04-16T05:40:28.374Z,3.00
2023-04-16T05:42:57.786Z,2.72
2023-04-16T05:45:27.437Z,2.60
2023-04-16T05:47:56.264Z,2.78
2023-04-16T05:50:24.446Z,2.88
2023-04-16T05:52:52.532Z,3.00
2023-04-16T05:55:20.828Z,2.42
2023-04-16T05:57:48.865Z,2.60
2023-04-16T06:00:18.806Z,2.78
2023-04-16T06:02:47.227Z,2.72
2023-04-16T06:05:15.705Z,2.65
2023-04-16T06:07:43.901Z,3.00
2023-04-16T06:10:12.331Z,2.50
2023-04-16T06:12:40.481Z,2.90
2023-04-16T06:15:09.775Z,2.50
2023-04-16T06:17:39.509Z,2.72
2023-04-16T06:20:09.884Z,2.38
2023-04-16T06:22:38.140Z,2.63
2023-04-16T06:25:10.301Z,3.00
2023-04-16T06:27:38.505Z,2.70
2023-04-16T06:30:12.562Z,2.50
2023-04-16T06:32:42.148Z,2.90
2023-04-16T06:35:10.887Z,2.58
2023-04-16T06:37:39.002Z,2.85
2023-04-16T06:40:08.106Z,2.67
2023-04-16T06:42:36.230Z,2.50
2023-04-16T06:45:04.537Z,3.08
2023-04-16T06:47:32.727Z,2.40
2023-04-16T06:50:02.325Z,2.90
2023-04-16T06:52:30.971Z,2.75
2023-04-16T06:54:59.791Z,2.50
2023-04-16T06:57:27.868Z,2.53
2023-04-16T06:59:56.035Z,2.47
2023-04-16T07:02:25.362Z,2.80
2023-04-16T07:04:53.968Z,2.45
2023-04-16T07:07:23.450Z,2.63
2023-04-16T07:09:52.098Z,2.70
2023-04-16T07:12:22.851Z,3.08
2023-04-16T07:14:51.128Z,2.42
2023-04-16T07:17:19.145Z,2.70
2023-04-16T07:19:47.653Z,2.80
2023-04-16T07:22:15.827Z,2.90
2023-04-16T07:24:45.521Z,2.80
2023-04-16T07:27:13.592Z,2.67
2023-04-16T07:29:42.103Z,2.33
2023-04-16T07:32:10.566Z,2.42
2023-04-16T07:34:38.957Z,2.80
2023-04-16T07:37:07.041Z,2.70
2023-04-16T07:39:35.197Z,2.58
2023-04-16T07:42:04.766Z,2.45
2023-04-16T07:44:32.800Z,3.10
2023-04-16T07:47:01.899Z,3.08
2023-04-16T07:49:31.060Z,2.38
2023-04-16T07:51:59.171Z,2.45
2023-04-16T07:54:29.016Z,2.55
2023-04-16T07:56:57.266Z,2.33
2023-04-16T07:59:27.079Z,2.35
2023-04-16T08:01:55.719Z,2.40
2023-04-16T08:04:26.287Z,2.78
2023-04-16T08:06:54.888Z,2.67
2023-04-16T08:09:24.498Z,2.47
2023-04-16T08:11:52.704Z,2.80
2023-04-16T08:14:21.562Z,2.53
2023-04-16T08:16:51.139Z,2.72
2023-04-16T08:19:19.160Z,2.50
2023-04-16T08:21:48.046Z,2.20
2023-04-16T08:24:16.111Z,2.60
2023-04-16T08:26:44.203Z,2.85
2023-04-16T08:29:12.506Z,2.50
2023-04-16T08:31:41.371Z,2.60
2023-04-16T08:34:12.366Z,2.50
2023-04-16T08:36:41.554Z,2.30
2023-04-16T08:39:10.169Z,2.63
2023-04-16T08:41:42.131Z,2.70
2023-04-16T08:44:14.235Z,2.53
2023-04-16T08:46:44.321Z,2.70
2023-04-16T08:49:17.999Z,2.80
2023-04-16T08:51:53.133Z,3.10
2023-04-16T08:54:32.567Z,2.95
2023-04-16T08:57:01.416Z,2.80
2023-04-16T08:59:30.557Z,2.83
2023-04-16T09:02:00.048Z,2.83
2023-04-16T09:04:30.655Z,3.00
2023-04-16T09:07:00.631Z,2.65
2023-04-16T09:09:30.065Z,3.00
2023-04-16T09:11:58.355Z,3.00
2023-04-16T09:14:26.598Z,2.97
2023-04-16T09:16:55.735Z,2.45
2023-04-16T09:19:24.556Z,2.70
2023-04-16T09:21:54.088Z,3.03
2023-04-16T09:24:23.089Z,2.80
2023-04-16T09:26:52.738Z,2.90
2023-04-16T09:29:36.175Z,2.80
2023-04-16T09:34:34.460Z,2.83
2023-04-16T09:37:19.445Z,2.90
2023-04-16T09:39:55.097Z,2.92
2023-04-16T09:42:25.179Z,2.72
2023-04-16T09:44:54.156Z,2.95
2023-04-16T09:47:22.928Z,2.50
2023-04-16T09:49:51.029Z,2.63
2023-04-16T09:52:23.827Z,2.53
2023-04-16T09:54:53.721Z,2.30
2023-04-16T09:57:22.928Z,2.83
2023-04-16T09:59:54.045Z,2.50
2023-04-16T10:02:23.283Z,2.75
2023-04-16T10:04:52.416Z,2.20
2023-04-16T10:07:22.149Z,2.30
2023-04-16T10:09:52.484Z,2.50
2023-04-16T10:12:21.487Z,2.42
2023-04-16T10:14:50.481Z,2.65
2023-04-16T10:17:18.944Z,2.50
2023-04-16T10:19:47.613Z,2.42
2023-04-16T10:22:16.534Z,2.30
2023-04-16T10:24:48.216Z,2.50
2023-04-16T10:27:16.621Z,2.53
2023-04-16T10:29:46.056Z,2.00
2023-04-16T10:32:15.232Z,2.50
2023-04-16T10:34:43.615Z,2.33
2023-04-16T10:37:11.682Z,2.33
2023-04-16T10:39:39.915Z,2.50
2023-04-16T10:42:11.184Z,2.20
2023-04-16T10:44:43.499Z,2.35
2023-04-16T10:47:14.231Z,1.95
2023-04-16T10:49:43.626Z,2.03
2023-04-16T10:52:13.162Z,1.98
2023-04-16T10:54:41.657Z,2.30
2023-04-16T10:57:17.928Z,2.30
2023-04-16T10:59:46.611Z,1.98
2023-04-16T11:02:16.605Z,2.10
2023-04-16T11:04:46.112Z,2.20
2023-04-16T11:07:18.012Z,2.55
2023-04-16T11:09:57.735Z,2.53
2023-04-16T11:12:33.781Z,2.20
2023-04-16T11:15:03.464Z,2.50
2023-04-16T11:17:34.415Z,2.28
2023-04-16T11:20:02.837Z,2.17
2023-04-16T11:22:31.727Z,1.90
2023-04-16T11:24:59.719Z,2.00
2023-04-16T11:27:31.120Z,2.10
2023-04-16T11:30:00.795Z,2.05
2023-04-16T11:32:29.280Z,2.08
2023-04-16T11:34:57.601Z,1.98
2023-04-16T11:37:34.116Z,1.95
2023-04-16T11:40:04.893Z,2.08
2023-04-16T11:42:37.179Z,1.90
2023-04-16T11:45:06.225Z,2.00
2023-04-16T11:47:43.228Z,1.98
2023-04-16T11:50:22.431Z,1.98
2023-04-16T11:52:51.658Z,1.98
2023-04-16T11:55:19.945Z,1.77
2023-04-16T11:57:49.479Z,2.10
2023-04-16T12:00:24.621Z,1.75
2023-04-16T12:02:54.941Z,1.45
2023-04-16T12:05:32.048Z,1.77
2023-04-16T12:08:01.378Z,1.50
2023-04-16T12:10:29.926Z,1.80
2023-04-16T12:13:12.994Z,1.45
2023-04-16T12:15:48.558Z,1.98
2023-04-16T12:18:17.288Z,1.50
2023-04-16T12:20:46.587Z,1.50
2023-04-16T12:23:24.578Z,1.40
2023-04-16T12:25:52.928Z,1.98
2023-04-16T12:28:30.397Z,1.55
2023-04-16T12:30:58.762Z,1.83
2023-04-16T12:33:27.072Z,1.77
2023-04-16T12:35:55.470Z,1.52
2023-04-16T12:38:25.560Z,1.52
2023-04-16T12:40:56.945Z,1.60
2023-04-16T12:43:25.600Z,1.65
2023-04-16T12:45:55.256Z,1.70
2023-04-16T12:48:23.548Z,1.50
2023-04-16T12:50:55.528Z,1.67
2023-04-16T12:53:26.114Z,1.45
2023-04-16T12:55:54.268Z,1.60
2023-04-16T12:58:25.607Z,1.40
2023-04-16T13:00:55.550Z,1.42
2023-04-16T13:03:23.931Z,1.30
2023-04-16T13:05:52.151Z,1.60
2023-04-16T13:08:20.305Z,1.35
2023-04-16T13:10:48.728Z,1.52
2023-04-16T13:13:16.766Z,1.40
2023-04-16T13:15:45.184Z,1.50
2023-04-16T13:18:14.604Z,1.38
2023-04-16T13:20:42.738Z,1.40
2023-04-16T13:23:11.294Z,1.60
2023-04-16T13:25:39.433Z,1.40
2023-04-16T13:28:07.591Z,1.35
2023-04-16T13:30:36.011Z,1.35
2023-04-16T13:33:07.688Z,1.20
2023-04-16T13:35:37.349Z,1.48
2023-04-16T13:38:06.097Z,1.38
2023-04-16T13:40:34.210Z,1.58
2023-04-16T13:43:02.304Z,1.08
2023-04-16T13:45:30.576Z,1.20
2023-04-16T13:47:59.081Z,1.35
2023-04-16T13:50:27.539Z,1.60
2023-04-16T13:52:57.076Z,1.52
2023-04-16T13:55:25.271Z,1.50
2023-04-16T13:57:53.418Z,1.33
2023-04-16T14:00:21.913Z,1.27
2023-04-16T14:02:50.276Z,1.38
2023-04-16T14:05:19.478Z,1.30
2023-04-16T14:07:47.554Z,1.13
2023-04-16T14:10:17.164Z,1.20
2023-04-16T14:12:45.737Z,1.40
2023-04-16T14:15:15.582Z,1.27
2023-04-16T14:17:46.927Z,1.30
2023-04-16T14:20:15.745Z,1.40
2023-04-16T14:22:44.937Z,1.50
2023-04-16T14:25:13.116Z,1.20
2023-04-16T14:27:42.635Z,1.10
2023-04-16T14:30:11.310Z,1.13
2023-04-16T14:32:39.416Z,1.40
2023-04-16T14:35:08.334Z,1.40
2023-04-16T14:37:38.402Z,1.10
2023-04-16T14:40:08.959Z,1.20
2023-04-16T14:42:37.870Z,1.00
2023-04-16T14:45:08.820Z,1.40
2023-04-16T14:47:46.026Z,1.38
2023-04-16T14:50:17.086Z,1.23
2023-04-16T14:52:45.426Z,1.20
2023-04-16T14:55:13.717Z,1.25
2023-04-16T14:57:41.974Z,1.20
2023-04-16T15:00:13.631Z,1.20
2023-04-16T15:02:42.198Z,1.42
2023-04-16T15:05:11.394Z,1.08
2023-04-16T15:07:39.545Z,1.40
2023-04-16T15:10:08.787Z,1.20
2023-04-16T15:12:36.996Z,1.15
2023-04-16T15:15:05.982Z,1.20
2023-04-16T15:17:35.751Z,1.45
2023-04-16T15:20:06.857Z,1.40
2023-04-16T15:22:35.384Z,1.35
2023-04-16T15:25:04.189Z,1.30
2023-04-16T15:27:32.585Z,1.35
2023-04-16T15:30:01.060Z,1.10
2023-04-16T15:32:29.682Z,1.20
2023-04-16T15:34:59.867Z,1.10
2023-04-16T15:37:27.962Z,1.30
2023-04-16T15:39:56.654Z,1.20
2023-04-16T15:42:38.954Z,1.30
2023-04-16T15:45:07.697Z,1.25
2023-04-16T15:47:37.213Z,1.40
2023-04-16T15:50:10.237Z,1.35
2023-04-16T15:52:39.474Z,1.23
2023-04-16T15:55:07.887Z,1.05
2023-04-16T15:57:36.202Z,1.20
2023-04-16T16:00:13.459Z,1.35
2023-04-16T16:02:42.178Z,1.23
2023-04-16T16:05:13.458Z,1.10
2023-04-16T16:07:41.969Z,1.20
2023-04-16T16:10:12.928Z,1.27
2023-04-16T16:12:41.674Z,1.25
2023-04-16T16:15:11.146Z,0.98
2023-04-16T16:17:41.799Z,1.33
2023-04-16T16:20:10.952Z,1.17
2023-04-16T16:22:41.836Z,1.30
2023-04-16T16:25:11.163Z,1.30
2023-04-16T16:27:40.605Z,1.40
2023-04-16T16:30:09.972Z,1.15
2023-04-16T16:32:40.894Z,1.23
2023-04-16T16:35:09.828Z,1.17
2023-04-16T16:37:38.183Z,1.08
2023-04-16T16:40:08.811Z,1.40
2023-04-16T16:42:37.107Z,1.48
2023-04-16T16:45:06.197Z,1.30
2023-04-16T16:47:34.572Z,1.40
2023-04-16T16:50:03.246Z,1.58
2023-04-16T16:52:32.129Z,1.20
2023-04-16T16:55:00.277Z,1.30
2023-04-16T16:57:29.711Z,1.15
2023-04-16T16:59:57.990Z,1.20
2023-04-16T17:02:26.238Z,1.20
2023-04-16T17:04:54.952Z,1.23
2023-04-16T17:07:23.037Z,1.17
2023-04-16T17:09:51.430Z,1.05
2023-04-16T17:12:19.788Z,1.23
2023-04-16T17:14:52.336Z,1.35
2023-04-16T17:17:20.580Z,1.30
2023-04-16T17:19:48.817Z,1.00
2023-04-16T17:22:16.870Z,1.17
2023-04-16T17:24:44.918Z,1.15
2023-04-16T17:27:13.065Z,1.30
2023-04-16T17:29:41.158Z,1.20
2023-04-16T17:32:10.882Z,1.25
2023-04-16T17:34:38.976Z,1.30
2023-04-16T17:37:07.040Z,1.23
2023-04-16T17:39:35.124Z,1.25
2023-04-16T17:42:04.050Z,1.38
2023-04-16T17:44:32.174Z,1.00
2023-04-16T17:47:00.413Z,1.48
2023-04-16T17:49:29.960Z,1.25
2023-04-16T17:51:58.401Z,1.50
2023-04-16T17:54:27.033Z,1.33
2023-04-16T17:56:55.493Z,1.40
2023-04-16T17:59:23.676Z,1.40
2023-04-16T18:01:51.973Z,1.35
2023-04-16T18:04:20.698Z,1.33
2023-04-16T18:06:50.137Z,1.50
2023-04-16T18:09:19.488Z,1.50
2023-04-16T18:11:47.577Z,1.73
2023-04-16T18:14:19.896Z,1.30
2023-04-16T18:16:48.680Z,1.30
2023-04-16T18:19:17.051Z,1.60
2023-04-16T18:21:45.232Z,1.70
2023-04-16T18:24:15.481Z,1.35
2023-04-16T18:26:46.660Z,1.20
2023-04-16T18:29:15.570Z,1.23
2023-04-16T18:31:47.412Z,1.42
2023-04-16T18:34:15.968Z,1.48
2023-04-16T18:36:44.197Z,1.50
2023-04-16T18:39:12.551Z,1.40
2023-04-16T18:41:42.860Z,1.40
2023-04-16T18:44:11.057Z,1.40
2023-04-16T18:46:39.122Z,1.45
2023-04-16T18:49:08.804Z,1.40
2023-04-16T18:51:37.440Z,1.40
2023-04-16T18:54:05.648Z,1.38
2023-04-16T18:56:33.704Z,1.45
2023-04-16T18:59:03.470Z,1.35
2023-04-16T19:01:31.627Z,1.50
2023-04-16T19:04:00.373Z,1.30
2023-04-16T19:06:29.245Z,1.30
2023-04-16T19:08:57.634Z,1.50
2023-04-16T19:11:25.866Z,1.30
2023-04-16T19:13:54.271Z,1.27
2023-04-16T19:16:23.864Z,1.33
2023-04-16T19:18:51.946Z,1.50
2023-04-16T19:21:21.405Z,1.50
2023-04-16T19:23:50.782Z,1.40
2023-04-16T19:26:18.930Z,1.55
2023-04-16T19:28:47.152Z,1.10
2023-04-16T19:31:15.661Z,1.20
2023-04-16T19:33:45.153Z,1.55
2023-04-16T19:36:13.264Z,1.60
2023-04-16T19:38:41.433Z,1.50
2023-04-16T19:41:10.100Z,1.58
2023-04-16T19:43:38.815Z,1.40
2023-04-16T19:46:07.333Z,1.40
2023-04-16T19:48:35.425Z,1.33
2023-04-16T19:51:05.579Z,1.20
2023-04-16T19:53:34.385Z,1.35
2023-04-16T19:56:02.630Z,1.38
2023-04-16T19:58:30.866Z,1.30
2023-04-16T20:01:02.603Z,1.27
2023-04-16T20:03:30.927Z,1.40
2023-04-16T20:05:59.231Z,1.50
2023-04-16T20:08:29.065Z,1.27
2023-04-16T20:10:57.280Z,1.23
2023-04-16T20:13:26.042Z,1.45
2023-04-16T20:15:54.535Z,1.30
2023-04-16T20:18:28.043Z,1.50
2023-04-16T20:20:59.629Z,1.15
2023-04-16T20:23:29.040Z,1.30
2023-04-16T20:26:00.219Z,1.37
2023-04-16T20:28:28.494Z,1.30
2023-04-16T20:30:56.764Z,1.30
2023-04-16T20:33:25.343Z,1.10
2023-04-16T20:35:53.404Z,1.23
2023-04-16T20:38:23.898Z,1.25
2023-04-16T20:41:06.236Z,1.52
2023-04-16T20:43:38.539Z,1.30
2023-04-16T20:46:07.108Z,1.30
2023-04-16T20:48:35.594Z,1.30
2023-04-16T20:51:05.405Z,1.42
2023-04-16T20:53:34.000Z,1.30
2023-04-16T20:56:03.499Z,1.30
2023-04-16T20:58:31.634Z,1.08
2023-04-16T21:00:59.787Z,1.52
2023-04-16T21:03:28.179Z,1.30
2023-04-16T21:05:56.807Z,1.50
2023-04-16T21:08:25.479Z,1.50
2023-04-16T21:10:54.922Z,1.40
2023-04-16T21:13:26.965Z,1.17
2023-04-16T21:15:55.351Z,1.30
2023-04-16T21:18:25.978Z,1.30
2023-04-16T21:20:54.266Z,1.48
2023-04-16T21:23:22.333Z,1.35
2023-04-16T21:25:50.608Z,1.35
2023-04-16T21:28:18.762Z,1.30
2023-04-16T21:30:52.122Z,1.20
2023-04-16T21:33:20.375Z,1.20
2023-04-16T21:35:52.347Z,1.45
2023-04-16T21:38:20.577Z,1.23
2023-04-16T21:40:50.772Z,1.20
2023-04-16T21:43:18.886Z,1.23
2023-04-16T21:45:53.292Z,1.25
2023-04-16T21:48:21.967Z,1.20
2023-04-16T21:50:56.082Z,1.20
2023-04-16T21:53:24.167Z,1.50
2023-04-16T21:55:52.385Z,1.20
2023-04-16T21:58:20.533Z,1.30
2023-04-16T22:00:50.186Z,1.40
2023-04-16T22:03:18.627Z,1.30
2023-04-16T22:05:47.200Z,1.40
2023-04-16T22:08:24.124Z,1.08
2023-04-16T22:10:53.212Z,1.00
2023-04-16T22:13:21.637Z,1.30
2023-04-16T22:15:51.092Z,1.35
2023-04-16T22:18:19.294Z,1.23
2023-04-16T22:20:50.776Z,1.30
2023-04-16T22:23:18.952Z,1.20
2023-04-16T22:25:46.959Z,1.52
2023-04-16T22:28:16.606Z,1.45
2023-04-16T22:30:44.696Z,1.20
2023-04-16T22:33:14.219Z,1.20
2023-04-16T22:35:42.486Z,1.40
2023-04-16T22:38:10.621Z,1.50
2023-04-16T22:40:38.761Z,1.50
2023-04-16T22:43:07.330Z,1.20
2023-04-16T22:45:35.805Z,1.30
2023-04-16T22:48:03.966Z,1.27
2023-04-16T22:50:33.580Z,1.25
2023-04-16T22:53:01.765Z,1.27
2023-04-16T22:55:30.127Z,1.23
2023-04-16T22:57:58.229Z,1.40
2023-04-16T23:00:27.308Z,1.20
2023-04-16T23:02:56.076Z,1.20
2023-04-16T23:05:24.238Z,1.23
2023-04-16T23:07:54.132Z,1.20
2023-04-16T23:10:22.333Z,1.20
2023-04-16T23:12:50.839Z,1.35
2023-04-16T23:15:19.043Z,1.20
2023-04-16T23:17:47.342Z,1.38
2023-04-16T23:20:15.730Z,1.42
2023-04-16T23:22:44.055Z,1.35
2023-04-16T23:25:13.523Z,1.40
2023-04-16T23:27:41.711Z,1.35
2023-04-16T23:30:10.586Z,1.17
2023-04-16T23:32:40.169Z,1.38
2023-04-16T23:35:09.561Z,1.40
2023-04-16T23:37:37.749Z,1.20
2023-04-16T23:40:07.271Z,1.00
2023-04-16T23:42:36.950Z,1.00
2023-04-16T23:45:05.643Z,1.55
2023-04-16T23:47:33.716Z,1.30
2023-04-16T23:50:02.071Z,1.42
2023-04-16T23:52:30.316Z,1.25
2023-04-16T23:54:58.461Z,1.27
2023-04-16T23:57:26.785Z,1.27
2023-04-16T23:59:58.809Z,1.08
